Seagoville's Hourly Summary for Monday, August 2, 2021
Hour Temp
(f)
RH
(%)
Solar Rad.
(MJ/m2)
Rainfall
(in)
Wind
(mph)
Battery
(volts)
8/2/2021 12:00 AM 76 93 0 0 0.34 12.87
8/2/2021 1:00 AM 75 94 0 0 0.27 12.86
8/2/2021 2:00 AM 76 93 0 0 0.7 12.86
8/2/2021 3:00 AM 74 92 0 0.96 7.11 12.63
8/2/2021 4:00 AM 71 95 0 0.14 1.71 12.59
8/2/2021 5:00 AM 72 97 0 0.1 0 12.58
8/2/2021 6:00 AM 72 97 0 0.03 0.05 12.57
8/2/2021 7:00 AM 72 97 0.07 0 0.02 12.57
8/2/2021 8:00 AM 73 96 0.3 0 0.36 12.58
8/2/2021 9:00 AM 75 90 0.62 0 2.35 12.68
8/2/2021 10:00 AM 77 81 0.76 0 4.1 12.69
8/2/2021 11:00 AM 78 78 1 0 3.68 12.9
8/2/2021 12:00 PM 80 71 1.32 0 4.92 13
8/2/2021 1:00 PM 83 61 2.72 0 5.6 13.13
8/2/2021 2:00 PM 86 55 3.12 0 4.45 13.17
8/2/2021 3:00 PM 85 56 2.56 0 6.18 13.03
8/2/2021 4:00 PM 77 73 0.69 0.94 4.18 12.86
8/2/2021 5:00 PM 77 82 0.71 0.01 3.61 12.89
8/2/2021 6:00 PM 81 73 0.84 0 3.43 12.9
8/2/2021 7:00 PM 80 75 0.27 0 3.34 12.96
8/2/2021 8:00 PM 78 79 0.02 0 1.09 12.97
8/2/2021 9:00 PM 76 82 0 0 0 12.95
8/2/2021 10:00 PM 75 89 0 0 0 12.94
8/2/2021 11:00 PM 75 93 0 0 0 12.93
Data Summary 76 83 15.00 2.18 2.40 12.84